Orbital elements of FENGYUN 1C DEB
| Launched | 9 May 1999 |
| Flight ended | – |
| Launch site | Taiyuan Space Center, PRC |
| Owner | People's Republic of China |
| NORAD ID | 31376 |
| Date fetched |
Epoch osculation |
Inc. [°] |
Ecc. | RA asc node [hr] |
Arg Peri. [°] |
Mean anom [°] |
Mean motion [rev/day] |
Abs. mag |
| Date fetched |
Epoch osculation |
Inc. [°] |
Ecc. | RA asc node [hr] |
Arg Peri. [°] |
Mean anom [°] |
Mean motion [rev/day] |
Abs. mag |
| 2026 May 07 17:58 | 2026 May 04 18:00:41 | 98.8371 | 0.00465 | 3.7400 | 184.7224 | 175.3544 | 14.64873 | – |
| 2026 May 06 17:57 | 2026 May 04 18:00:41 | 98.8371 | 0.00465 | 3.7400 | 184.7224 | 175.3544 | 14.64873 | – |
| 2026 May 05 17:57 | 2026 May 04 18:00:41 | 98.8371 | 0.00465 | 3.7400 | 184.7224 | 175.3544 | 14.64873 | – |
| 2026 May 04 17:57 | 2026 Apr 30 05:48:46 | 98.8376 | 0.00462 | 3.4173 | 198.8863 | 175.3544 | 14.64873 | – |
| 2026 May 03 17:57 | 2026 Apr 30 05:48:46 | 98.8376 | 0.00462 | 3.4173 | 198.8863 | 175.3544 | 14.64873 | – |
| 2026 May 02 17:57 | 2026 Apr 30 05:48:46 | 98.8376 | 0.00462 | 3.4173 | 198.8863 | 175.3544 | 14.64873 | – |
| 2026 May 01 17:56 | 2026 Apr 30 05:48:46 | 98.8376 | 0.00462 | 3.4173 | 198.8863 | 175.3544 | 14.64873 | – |
| 2026 Apr 30 17:56 | 2026 Apr 30 05:48:46 | 98.8376 | 0.00462 | 3.4173 | 198.8863 | 175.3544 | 14.64873 | – |
| 2026 Apr 29 17:57 | 2026 Apr 23 06:35:12 | 98.8356 | 0.00457 | 2.9187 | 221.2269 | 175.3544 | 14.64873 | – |
| 2026 Apr 28 17:56 | 2026 Apr 23 06:35:12 | 98.8356 | 0.00457 | 2.9187 | 221.2269 | 175.3544 | 14.64873 | – |
| 2026 Apr 27 17:58 | 2026 Apr 23 06:35:12 | 98.8356 | 0.00457 | 2.9187 | 221.2269 | 175.3544 | 14.64873 | – |
| 2026 Apr 26 17:58 | 2026 Apr 23 06:35:12 | 98.8356 | 0.00457 | 2.9187 | 221.2269 | 175.3544 | 14.64873 | – |
| 2026 Apr 25 17:58 | 2026 Apr 23 06:35:12 | 98.8356 | 0.00457 | 2.9187 | 221.2269 | 175.3544 | 14.64873 | – |
| 2026 Apr 24 17:59 | 2026 Apr 23 06:35:12 | 98.8356 | 0.00457 | 2.9187 | 221.2269 | 175.3544 | 14.64873 | – |
| 2026 Apr 23 17:57 | 2026 Apr 19 12:24:41 | 98.8368 | 0.00458 | 2.6499 | 233.4705 | 175.3544 | 14.64873 | – |
| 2026 Apr 22 17:57 | 2026 Apr 19 12:24:41 | 98.8368 | 0.00458 | 2.6499 | 233.4705 | 175.3544 | 14.64873 | – |
| 2026 Apr 21 17:57 | 2026 Apr 19 12:24:41 | 98.8368 | 0.00458 | 2.6499 | 233.4705 | 175.3544 | 14.64873 | – |
| 2026 Apr 20 17:57 | 2026 Apr 19 12:24:41 | 98.8368 | 0.00458 | 2.6499 | 233.4705 | 175.3544 | 14.64873 | – |
| 2026 Apr 19 17:58 | 2026 Apr 19 12:24:41 | 98.8368 | 0.00458 | 2.6499 | 233.4705 | 175.3544 | 14.64873 | – |
| 2026 Apr 18 17:56 | 2026 Apr 12 06:36:46 | 98.8358 | 0.00460 | 2.1318 | 256.7497 | 175.3544 | 14.64873 | – |
| 2026 Apr 16 17:57 | 2026 Apr 12 06:36:46 | 98.8358 | 0.00460 | 2.1318 | 256.7497 | 175.3544 | 14.64873 | – |
| 2026 Apr 14 17:57 | 2026 Apr 12 06:36:46 | 98.8358 | 0.00460 | 2.1318 | 256.7497 | 175.3544 | 14.64873 | – |
| 2026 Apr 13 17:57 | 2026 Apr 12 06:36:46 | 98.8358 | 0.00460 | 2.1318 | 256.7497 | 175.3544 | 14.64873 | – |
| 2026 Apr 12 17:57 | 2026 Apr 07 18:23:41 | 98.8354 | 0.00463 | 1.8093 | 271.1896 | 175.3544 | 14.64873 | – |
| 2026 Apr 11 17:57 | 2026 Apr 07 18:23:41 | 98.8354 | 0.00463 | 1.8093 | 271.1896 | 175.3544 | 14.64873 | – |
| 2026 Apr 10 17:58 | 2026 Apr 07 18:23:41 | 98.8354 | 0.00463 | 1.8093 | 271.1896 | 175.3544 | 14.64873 | – |